Time;durP1;ratioP1;P1;durP2;ratioP2;P2;SDS_P1;SDS_P2;PMS_P1;PMS_P2;Temp;Humidity;BMP_temperature;BMP_pressure;BME280_temperature;BME280_humidity;BME280_pressure;Samples;Min_cycle;Max_cycle;Signal;HPM_P1;HPM_P2
2022/02/08 00:00:41;;;;;;;2.22;1.65;;;;;;;;;;5066673;28;20071;-66
2022/02/08 00:03:11;;;;;;;8.98;1.35;;;;;;;;;;5078302;28;20070;-66
2022/02/08 00:05:39;;;;;;;2.63;1.25;;;;;;;;;;5071971;28;20049;-67
2022/02/08 00:08:08;;;;;;;4.22;1.20;;;;;;;;;;5078373;28;20098;-66
2022/02/08 00:10:39;;;;;;;4.28;1.25;;;;;;;;;;5067717;28;20052;-66
2022/02/08 00:13:08;;;;;;;4.90;1.20;;;;;;;;;;5067123;28;20053;-67
2022/02/08 00:15:36;;;;;;;6.60;1.90;;;;;;;;;;5059755;28;20048;-66
2022/02/08 00:18:05;;;;;;;4.70;1.60;;;;;;;;;;5073761;28;20127;-67
2022/02/08 00:20:33;;;;;;;3.97;1.30;;;;;;;;;;5068187;28;20060;-67
2022/02/08 00:23:02;;;;;;;2.80;1.08;;;;;;;;;;5063616;28;20144;-67
2022/02/08 00:25:30;;;;;;;2.72;1.15;;;;;;;;;;5075408;28;20421;-67
2022/02/08 00:28:00;;;;;;;7.13;1.63;;;;;;;;;;5060060;28;20041;-67
2022/02/08 00:30:28;;;;;;;5.10;1.73;;;;;;;;;;5078243;28;20496;-67
2022/02/08 00:32:57;;;;;;;2.88;1.27;;;;;;;;;;5056817;28;20060;-66
2022/02/08 00:35:25;;;;;;;3.78;1.52;;;;;;;;;;5043906;28;20086;-67
2022/02/08 00:37:54;;;;;;;4.18;1.42;;;;;;;;;;5046253;28;20053;-67
2022/02/08 00:40:24;;;;;;;7.75;1.80;;;;;;;;;;5045732;28;20301;-67
2022/02/08 00:42:52;;;;;;;4.55;1.40;;;;;;;;;;5048903;28;20060;-66
2022/02/08 00:45:34;;;;;;;3.70;1.60;;;;;;;;;;3743978;28;10020737;-67
2022/02/08 00:48:14;;;;;;;4.15;1.98;;;;;;;;;;3495174;28;10002641;-67
2022/02/08 00:50:49;;;;;;;2.90;1.58;;;;;;;;;;5095978;28;20504;-67
2022/02/08 00:53:17;;;;;;;3.88;1.40;;;;;;;;;;5085639;28;20396;-67
2022/02/08 00:55:46;;;;;;;6.05;1.60;;;;;;;;;;5091333;28;20054;-67
2022/02/08 00:58:14;;;;;;;4.40;1.35;;;;;;;;;;5100370;28;20174;-67
2022/02/08 01:00:44;;;;;;;4.35;1.40;;;;;;;;;;5094203;28;20127;-67
2022/02/08 01:03:12;;;;;;;4.65;1.50;;;;;;;;;;5080277;28;20059;-67
2022/02/08 01:05:46;;;;;;;1.98;1.17;;;;;;;;;;5086927;28;20408;-66
2022/02/08 01:08:14;;;;;;;3.35;1.58;;;;;;;;;;5094344;28;20101;-67
2022/02/08 01:10:43;;;;;;;5.75;1.58;;;;;;;;;;5091317;28;20072;-66
2022/02/08 01:13:12;;;;;;;4.82;1.58;;;;;;;;;;5091866;28;20101;-67
2022/02/08 01:15:40;;;;;;;5.57;1.30;;;;;;;;;;5089171;28;20491;-66
2022/02/08 01:18:10;;;;;;;4.82;1.38;;;;;;;;;;5096961;28;20491;-66
2022/02/08 01:20:39;;;;;;;2.25;1.10;;;;;;;;;;5091756;28;20044;-67
2022/02/08 01:23:10;;;;;;;3.90;1.05;;;;;;;;;;5084188;28;20044;-67
2022/02/08 01:25:44;;;;;;;9.55;1.45;;;;;;;;;;5094125;28;20130;-67
2022/02/08 01:28:21;;;;;;;3.70;1.20;;;;;;;;;;5089141;28;20087;-66
2022/02/08 01:30:59;;;;;;;5.88;1.30;;;;;;;;;;5089119;28;20046;-66
2022/02/08 01:39:27;;;;;;;3.90;1.10;;;;;;;;;;5088232;28;20100;-67
2022/02/08 01:45:41;;;;;;;6.13;1.48;;;;;;;;;;5085115;28;20063;-66
2022/02/08 01:48:12;;;;;;;2.22;1.30;;;;;;;;;;5094193;28;20082;-66
2022/02/08 01:50:43;;;;;;;4.50;1.35;;;;;;;;;;5090356;28;20144;-67
2022/02/08 01:53:12;;;;;;;3.65;1.40;;;;;;;;;;5103187;28;20051;-66
2022/02/08 01:55:41;;;;;;;4.57;1.10;;;;;;;;;;5098371;28;20043;-66
2022/02/08 01:58:24;;;;;;;2.60;1.15;;;;;;;;;;5087802;28;20487;-66
2022/02/08 02:00:53;;;;;;;2.97;1.17;;;;;;;;;;5090795;28;20047;-67
2022/02/08 02:03:22;;;;;;;5.07;1.35;;;;;;;;;;5079728;28;20049;-67
2022/02/08 02:05:53;;;;;;;4.72;1.00;;;;;;;;;;5080871;28;20287;-67
2022/02/08 02:08:22;;;;;;;3.25;0.82;;;;;;;;;;5093034;28;20135;-66
2022/02/08 02:10:50;;;;;;;3.30;1.15;;;;;;;;;;5091761;28;20051;-66
2022/02/08 02:13:34;;;;;;;6.10;1.02;;;;;;;;;;5102799;28;20139;-67
2022/02/08 02:16:05;;;;;;;4.18;1.17;;;;;;;;;;5094592;28;20071;-66
2022/02/08 02:18:33;;;;;;;3.40;1.00;;;;;;;;;;5092960;28;20040;-66
2022/02/08 02:21:06;;;;;;;4.53;1.20;;;;;;;;;;5026428;28;20528;-67
2022/02/08 02:23:39;;;;;;;3.00;0.90;;;;;;;;;;350426;28;10022724;-66
2022/02/08 02:26:09;;;;;;;2.92;1.27;;;;;;;;;;5093641;28;20044;-67
2022/02/08 02:28:37;;;;;;;5.70;1.52;;;;;;;;;;5091264;28;20153;-66
2022/02/08 02:31:09;;;;;;;7.50;1.55;;;;;;;;;;5091810;28;20072;-67
2022/02/08 02:33:37;;;;;;;8.93;1.35;;;;;;;;;;5094311;28;20083;-67
2022/02/08 02:36:07;;;;;;;1.77;0.77;;;;;;;;;;5092996;28;20040;-67
2022/02/08 02:38:35;;;;;;;4.15;1.25;;;;;;;;;;5091649;28;20184;-66
2022/02/08 02:41:06;;;;;;;3.83;1.00;;;;;;;;;;5089122;28;20126;-67
2022/02/08 02:43:36;;;;;;;2.05;1.00;;;;;;;;;;5093432;28;20048;-67
2022/02/08 02:46:08;;;;;;;5.68;1.10;;;;;;;;;;5082446;28;20047;-67
2022/02/08 02:48:36;;;;;;;3.80;1.00;;;;;;;;;;5090145;28;20136;-67
2022/02/08 02:51:08;;;;;;;10.70;1.48;;;;;;;;;;5097823;28;20048;-67
2022/02/08 02:53:36;;;;;;;6.00;1.02;;;;;;;;;;5095909;28;20401;-67
2022/02/08 02:56:07;;;;;;;3.28;1.27;;;;;;;;;;5089034;28;20036;-67
2022/02/08 02:58:38;;;;;;;4.22;1.33;;;;;;;;;;5087645;28;20051;-66
2022/02/08 03:01:20;;;;;;;5.72;1.13;;;;;;;;;;5078853;28;20044;-67
2022/02/08 03:04:06;;;;;;;2.83;0.98;;;;;;;;;;5090715;28;20119;-67
2022/02/08 03:17:58;;;;;;;4.13;0.93;;;;;;;;;;5083986;28;20152;-67
2022/02/08 03:20:27;;;;;;;4.40;1.30;;;;;;;;;;5094847;28;20079;-66
2022/02/08 03:22:55;;;;;;;6.80;0.95;;;;;;;;;;5081783;28;20142;-66
2022/02/08 03:25:23;;;;;;;5.18;1.00;;;;;;;;;;5079451;28;20052;-67
2022/02/08 03:27:52;;;;;;;2.10;0.90;;;;;;;;;;5078758;28;20148;-67
2022/02/08 03:30:21;;;;;;;6.60;0.90;;;;;;;;;;5097262;28;20071;-67
2022/02/08 03:32:50;;;;;;;3.22;0.80;;;;;;;;;;5095462;28;20044;-67
2022/02/08 03:35:18;;;;;;;3.15;1.20;;;;;;;;;;5089704;28;20139;-67
2022/02/08 03:37:55;;;;;;;2.50;0.90;;;;;;;;;;5089060;28;20415;-67
2022/02/08 03:40:36;;;;;;;1.83;0.98;;;;;;;;;;5075894;28;20044;-67
2022/02/08 03:43:14;;;;;;;6.13;0.95;;;;;;;;;;5094708;28;20046;-66
2022/02/08 03:45:47;;;;;;;1.85;0.75;;;;;;;;;;5088477;28;20470;-66
2022/02/08 03:48:18;;;;;;;9.00;1.00;;;;;;;;;;5081288;28;20499;-67
2022/02/08 03:50:52;;;;;;;1.60;0.82;;;;;;;;;;5091164;28;20048;-66
2022/02/08 03:53:20;;;;;;;5.40;0.80;;;;;;;;;;5091181;28;20044;-66
2022/02/08 03:55:49;;;;;;;4.60;0.82;;;;;;;;;;5082778;28;20399;-67
2022/02/08 03:58:18;;;;;;;4.78;1.23;;;;;;;;;;5080419;28;20698;-66
2022/02/08 04:01:03;;;;;;;2.60;0.77;;;;;;;;;;5099777;28;20048;-67
2022/02/08 04:03:35;;;;;;;3.95;1.30;;;;;;;;;;5012997;28;20083;-66
2022/02/08 04:06:07;;;;;;;6.00;1.05;;;;;;;;;;339387;28;10022874;-66
2022/02/08 04:08:35;;;;;;;2.78;0.80;;;;;;;;;;5099149;28;20054;-66
2022/02/08 04:11:08;;;;;;;2.15;0.90;;;;;;;;;;5086282;28;20040;-66
2022/02/08 04:13:45;;;;;;;2.88;1.02;;;;;;;;;;5087128;28;20040;-67
2022/02/08 04:16:25;;;;;;;4.88;0.80;;;;;;;;;;5079142;28;20385;-66
2022/02/08 04:19:09;;;;;;;3.80;1.08;;;;;;;;;;5087409;28;20504;-67
2022/02/08 04:33:07;;;;;;;2.33;0.73;;;;;;;;;;5071058;28;20166;-67
2022/02/08 04:35:46;;;;;;;4.85;0.88;;;;;;;;;;5091383;28;20611;-66
2022/02/08 04:38:31;;;;;;;5.90;1.08;;;;;;;;;;5086698;28;20048;-66
2022/02/08 04:41:03;;;;;;;7.68;1.02;;;;;;;;;;5087380;28;20043;-66
2022/02/08 04:43:40;;;;;;;6.35;1.00;;;;;;;;;;5081438;28;20446;-67
2022/02/08 04:46:20;;;;;;;6.72;0.88;;;;;;;;;;5077337;28;20056;-67
2022/02/08 04:48:53;;;;;;;5.10;0.90;;;;;;;;;;5100057;28;20044;-67
2022/02/08 04:51:28;;;;;;;2.27;0.67;;;;;;;;;;5100899;28;20144;-66
2022/02/08 04:54:05;;;;;;;4.07;1.02;;;;;;;;;;5095644;28;20773;-67
2022/02/08 04:56:44;;;;;;;5.15;1.02;;;;;;;;;;5109419;27;20139;-67
2022/02/08 04:59:24;;;;;;;6.70;1.13;;;;;;;;;;5090106;28;20531;-67
2022/02/08 05:02:13;;;;;;;2.05;0.95;;;;;;;;;;5090091;28;20047;-67
2022/02/08 05:27:27;;;;;;;3.78;1.10;;;;;;;;;;5091686;28;20332;-67
2022/02/08 05:34:11;;;;;;;5.13;0.80;;;;;;;;;;5087773;28;20040;-67
2022/02/08 05:35:47;;;;;;;3.88;0.77;;;;;;;;;;5087964;28;20052;-67
2022/02/08 05:44:11;;;;;;;8.82;0.90;;;;;;;;;;5074905;28;20471;-67
2022/02/08 05:49:28;;;;;;;;;;;;;;;;;;5089982;28;20052;-67
2022/02/08 05:54:44;;;;;;;7.63;1.13;;;;;;;;;;5066164;28;20056;-68
2022/02/08 05:57:12;;;;;;;2.17;0.70;;;;;;;;;;5083712;28;20181;-68
2022/02/08 05:59:41;;;;;;;3.58;0.85;;;;;;;;;;5082349;28;20131;-67
2022/02/08 06:02:11;;;;;;;12.65;1.48;;;;;;;;;;5086182;28;20048;-67
2022/02/08 06:04:39;;;;;;;3.25;1.02;;;;;;;;;;5083872;28;20071;-67
2022/02/08 06:07:08;;;;;;;3.70;0.80;;;;;;;;;;5084909;28;20167;-68
2022/02/08 06:09:36;;;;;;;5.72;1.38;;;;;;;;;;5086607;28;20048;-67
2022/02/08 06:12:07;;;;;;;1.10;0.63;;;;;;;;;;5077501;28;20055;-67
2022/02/08 06:14:36;;;;;;;2.22;0.85;;;;;;;;;;5086080;28;20147;-67
2022/02/08 06:17:05;;;;;;;4.03;1.00;;;;;;;;;;5087860;28;20044;-67
2022/02/08 06:19:33;;;;;;;1.48;0.80;;;;;;;;;;5089005;28;20075;-67
2022/02/08 06:22:01;;;;;;;3.70;0.75;;;;;;;;;;5085694;28;20532;-67
2022/02/08 06:24:29;;;;;;;3.63;0.80;;;;;;;;;;5084731;28;20143;-68
2022/02/08 06:26:58;;;;;;;3.90;0.95;;;;;;;;;;5085407;28;20044;-67
2022/02/08 06:29:27;;;;;;;3.08;0.73;;;;;;;;;;5085537;28;20653;-67
2022/02/08 06:31:55;;;;;;;4.43;1.02;;;;;;;;;;5084631;28;20050;-67
2022/02/08 06:34:27;;;;;;;7.63;1.27;;;;;;;;;;5089470;28;20043;-68
2022/02/08 06:37:01;;;;;;;5.55;1.30;;;;;;;;;;5083036;28;20051;-67
2022/02/08 06:39:34;;;;;;;2.08;0.88;;;;;;;;;;5087954;28;20228;-67
2022/02/08 06:42:03;;;;;;;2.78;0.80;;;;;;;;;;5082901;28;20056;-67
2022/02/08 06:44:33;;;;;;;5.22;1.85;;;;;;;;;;5091703;28;20100;-67
2022/02/08 06:47:02;;;;;;;3.58;0.95;;;;;;;;;;5085366;28;20441;-68
2022/02/08 06:49:30;;;;;;;2.50;0.85;;;;;;;;;;5090773;28;20497;-67
2022/02/08 06:51:59;;;;;;;7.35;0.80;;;;;;;;;;5095594;28;20051;-67
2022/02/08 06:54:27;;;;;;;3.50;1.30;;;;;;;;;;5090458;27;20047;-67
2022/02/08 06:56:56;;;;;;;1.30;0.70;;;;;;;;;;5100771;28;20061;-67
2022/02/08 06:59:24;;;;;;;2.70;0.80;;;;;;;;;;5100363;28;20043;-67
2022/02/08 07:01:54;;;;;;;5.95;1.00;;;;;;;;;;5091338;28;20135;-67
2022/02/08 07:04:22;;;;;;;2.67;0.77;;;;;;;;;;5079417;28;20054;-67
2022/02/08 07:06:56;;;;;;;4.60;1.05;;;;;;;;;;3280877;28;10021492;-67
2022/02/08 07:09:24;;;;;;;3.20;0.90;;;;;;;;;;2262343;28;10001987;-67
2022/02/08 07:11:56;;;;;;;4.20;0.70;;;;;;;;;;5068671;28;20061;-67
2022/02/08 07:14:29;;;;;;;2.60;1.10;;;;;;;;;;5061691;28;20451;-67
2022/02/08 07:16:59;;;;;;;2.28;0.73;;;;;;;;;;5074963;28;20056;-67
2022/02/08 07:19:28;;;;;;;7.93;1.13;;;;;;;;;;5088027;28;20392;-67
2022/02/08 07:21:56;;;;;;;3.20;0.75;;;;;;;;;;5086831;28;20048;-67
2022/02/08 07:24:24;;;;;;;6.28;1.00;;;;;;;;;;5087632;28;20071;-68
2022/02/08 07:26:53;;;;;;;5.82;0.90;;;;;;;;;;5084184;28;20131;-67
2022/02/08 07:29:22;;;;;;;1.25;0.80;;;;;;;;;;5081142;28;20105;-67
2022/02/08 07:31:54;;;;;;;2.17;1.17;;;;;;;;;;5087466;28;20046;-67
2022/02/08 07:34:29;;;;;;;4.25;0.93;;;;;;;;;;5098135;28;20093;-68
2022/02/08 07:37:05;;;;;;;3.63;0.75;;;;;;;;;;5085415;28;20557;-68
2022/02/08 07:39:40;;;;;;;2.13;0.77;;;;;;;;;;5092039;28;20052;-67
2022/02/08 07:42:09;;;;;;;3.25;0.90;;;;;;;;;;5075132;28;20137;-66
2022/02/08 07:44:38;;;;;;;1.55;0.63;;;;;;;;;;5079043;28;20048;-68
2022/02/08 07:47:06;;;;;;;2.90;0.77;;;;;;;;;;5091087;28;20051;-68
2022/02/08 07:49:39;;;;;;;3.70;1.05;;;;;;;;;;5092041;28;20462;-67
2022/02/08 07:52:08;;;;;;;2.50;0.82;;;;;;;;;;5087236;28;20049;-68
2022/02/08 07:54:36;;;;;;;1.33;0.80;;;;;;;;;;5091667;28;20040;-67
2022/02/08 07:57:05;;;;;;;4.38;1.25;;;;;;;;;;5089512;28;20094;-67
2022/02/08 07:59:33;;;;;;;4.47;1.00;;;;;;;;;;5088506;28;20484;-68
2022/02/08 08:02:02;;;;;;;3.72;0.95;;;;;;;;;;5087140;28;20187;-67
2022/02/08 08:04:30;;;;;;;2.25;0.68;;;;;;;;;;5091613;28;20071;-67
2022/02/08 08:07:01;;;;;;;2.28;0.80;;;;;;;;;;5059636;28;20471;-67
2022/02/08 08:09:30;;;;;;;1.98;0.68;;;;;;;;;;317915;28;10022820;-67
2022/02/08 08:12:01;;;;;;;3.20;0.90;;;;;;;;;;5088925;28;20044;-67
2022/02/08 08:14:32;;;;;;;3.58;1.17;;;;;;;;;;5087828;28;20044;-67
2022/02/08 08:17:23;;;;;;;4.95;0.70;;;;;;;;;;5079814;28;20044;-67
2022/02/08 08:19:50;;;;;;;1.88;0.57;;;;;;;;;;5095284;28;21332;-68
2022/02/08 08:22:20;;;;;;;2.80;0.80;;;;;;;;;;5081609;28;20673;-67
2022/02/08 08:24:50;;;;;;;4.72;0.90;;;;;;;;;;5090760;28;20097;-67
2022/02/08 08:27:20;;;;;;;3.83;1.23;;;;;;;;;;5089568;28;20052;-66
2022/02/08 08:29:48;;;;;;;2.17;0.60;;;;;;;;;;5094751;28;20049;-66
2022/02/08 08:32:17;;;;;;;5.97;0.90;;;;;;;;;;5088209;28;20053;-66
2022/02/08 08:34:46;;;;;;;1.60;0.60;;;;;;;;;;5086130;28;20551;-66
2022/02/08 08:37:15;;;;;;;5.55;1.25;;;;;;;;;;5090321;28;20055;-66
2022/02/08 08:39:48;;;;;;;11.18;1.00;;;;;;;;;;5094445;28;20127;-66
2022/02/08 08:42:30;;;;;;;1.40;0.65;;;;;;;;;;5091105;28;20044;-66
2022/02/08 08:48:22;;;;;;;3.67;0.80;;;;;;;;;;5078950;28;20078;-66
2022/02/08 08:50:59;;;;;;;8.73;1.27;;;;;;;;;;5090462;28;20040;-66
2022/02/08 08:53:33;;;;;;;7.63;0.93;;;;;;;;;;5094147;28;20105;-66
2022/02/08 08:56:08;;;;;;;1.98;0.70;;;;;;;;;;5091616;28;20508;-66
2022/02/08 08:58:42;;;;;;;4.45;1.00;;;;;;;;;;5081356;27;20476;-67
2022/02/08 09:01:11;;;;;;;1.55;0.50;;;;;;;;;;5077989;28;20475;-67
2022/02/08 09:03:40;;;;;;;2.95;0.50;;;;;;;;;;5085775;28;20083;-67
2022/02/08 09:06:10;;;;;;;2.20;0.70;;;;;;;;;;5089966;28;20036;-67
2022/02/08 09:08:41;;;;;;;1.20;0.63;;;;;;;;;;5086443;28;20105;-66
2022/02/08 09:11:17;;;;;;;1.48;0.55;;;;;;;;;;5085290;28;20128;-67
2022/02/08 09:13:52;;;;;;;2.55;0.73;;;;;;;;;;5078367;28;20081;-67
2022/02/08 09:16:28;;;;;;;3.20;0.65;;;;;;;;;;5085314;28;20577;-67
2022/02/08 09:21:48;;;;;;;2.10;0.85;;;;;;;;;;5083378;28;20121;-67
2022/02/08 09:27:47;;;;;;;4.60;0.70;;;;;;;;;;5014961;28;20140;-68
2022/02/08 09:30:18;;;;;;;1.70;0.70;;;;;;;;;;5058706;28;20718;-67
2022/02/08 09:32:50;;;;;;;1.52;0.60;;;;;;;;;;5061922;28;20553;-67
2022/02/08 09:35:20;;;;;;;2.42;0.50;;;;;;;;;;5061806;28;20055;-67
2022/02/08 09:37:49;;;;;;;1.23;0.43;;;;;;;;;;5087413;28;20055;-67
2022/02/08 09:40:19;;;;;;;1.92;0.68;;;;;;;;;;5089629;28;20071;-67
2022/02/08 09:42:52;;;;;;;1.25;0.50;;;;;;;;;;5084084;28;20388;-68
2022/02/08 09:45:22;;;;;;;2.72;0.60;;;;;;;;;;5090788;28;20044;-67
2022/02/08 09:47:55;;;;;;;1.00;0.63;;;;;;;;;;5083509;28;20523;-67
2022/02/08 09:50:27;;;;;;;2.95;0.70;;;;;;;;;;5089643;28;20067;-67
2022/02/08 09:52:59;;;;;;;0.57;0.40;;;;;;;;;;5090005;28;20396;-67
2022/02/08 09:55:29;;;;;;;1.55;0.47;;;;;;;;;;5091410;28;20048;-67
2022/02/08 09:58:00;;;;;;;4.10;0.50;;;;;;;;;;5083596;28;20048;-67
2022/02/08 10:00:28;;;;;;;0.60;0.60;;;;;;;;;;5090511;28;20499;-67
2022/02/08 10:03:05;;;;;;;0.82;0.30;;;;;;;;;;5090582;28;20055;-67
2022/02/08 10:05:44;;;;;;;4.93;0.60;;;;;;;;;;5087993;28;20048;-67
2022/02/08 10:08:13;;;;;;;3.47;0.60;;;;;;;;;;5086138;28;20583;-67
2022/02/08 10:10:43;;;;;;;5.13;0.63;;;;;;;;;;5093287;28;20369;-67
2022/02/08 10:13:40;;;;;;;3.22;0.60;;;;;;;;;;5084518;28;20056;-67
2022/02/08 10:19:38;;;;;;;3.08;0.60;;;;;;;;;;5083355;28;20088;-68
2022/02/08 10:22:07;;;;;;;3.95;0.63;;;;;;;;;;5089442;28;20063;-68
2022/02/08 10:24:37;;;;;;;3.05;0.50;;;;;;;;;;5083912;28;20706;-70
2022/02/08 10:27:25;;;;;;;6.22;0.98;;;;;;;;;;5086657;28;20052;-70
2022/02/08 10:38:40;;;;;;;1.50;0.48;;;;;;;;;;1189693;28;10022749;-71
2022/02/08 10:41:13;;;;;;;1.77;0.30;;;;;;;;;;4740963;28;10001393;-70
2022/02/08 10:43:42;;;;;;;1.15;0.50;;;;;;;;;;5081974;28;20044;-70
2022/02/08 10:46:22;;;;;;;2.70;0.52;;;;;;;;;;5073213;28;20072;-71
2022/02/08 10:49:01;;;;;;;6.57;0.65;;;;;;;;;;5090811;28;20497;-70
2022/02/08 10:51:35;;;;;;;1.25;0.38;;;;;;;;;;5088856;28;20044;-71
2022/02/08 10:54:10;;;;;;;2.10;0.47;;;;;;;;;;5073451;28;20048;-71
2022/02/08 10:56:40;;;;;;;5.70;0.60;;;;;;;;;;5101782;28;20052;-71
2022/02/08 10:59:17;;;;;;;2.05;0.57;;;;;;;;;;5084755;28;20052;-71
2022/02/08 11:01:56;;;;;;;0.47;0.32;;;;;;;;;;5084857;28;20093;-69
2022/02/08 11:04:43;;;;;;;1.55;0.50;;;;;;;;;;5078951;28;20040;-69
2022/02/08 11:07:19;;;;;;;5.13;0.45;;;;;;;;;;5078069;28;20052;-69
2022/02/08 11:10:08;;;;;;;3.72;0.60;;;;;;;;;;5075535;28;20393;-69
2022/02/08 11:12:46;;;;;;;2.90;0.90;;;;;;;;;;5082810;28;20273;-69
2022/02/08 11:15:28;;;;;;;4.40;0.60;;;;;;;;;;5083959;28;20068;-68
2022/02/08 11:18:19;;;;;;;4.97;0.68;;;;;;;;;;5084106;28;20059;-69
2022/02/08 11:20:56;;;;;;;5.43;0.65;;;;;;;;;;5075380;28;20093;-69
2022/02/08 11:23:33;;;;;;;1.25;0.35;;;;;;;;;;5074865;28;20082;-69
2022/02/08 11:26:04;;;;;;;0.98;0.43;;;;;;;;;;5073606;28;20131;-69
2022/02/08 11:28:43;;;;;;;1.00;0.40;;;;;;;;;;5086484;28;20040;-69
2022/02/08 11:31:21;;;;;;;2.40;0.40;;;;;;;;;;5090520;28;20040;-69
2022/02/08 11:38:56;;;;;;;1.15;0.40;;;;;;;;;;5084539;28;20047;-69
2022/02/08 11:40:10;;;;;;;0.80;0.57;;;;;;;;;;5088427;28;20059;-69
2022/02/08 11:48:18;;;;;;;4.95;0.43;;;;;;;;;;5070145;28;20059;-69
2022/02/08 11:53:39;;;;;;;;;;;;;;;;;;5087680;28;20445;-68
2022/02/08 11:59:13;;;;;;;4.30;0.70;;;;;;;;;;5089404;28;20052;-69
2022/02/08 12:02:03;;;;;;;2.72;0.55;;;;;;;;;;5089577;28;20048;-69
2022/02/08 12:04:47;;;;;;;2.53;0.30;;;;;;;;;;5090269;28;20047;-69
2022/02/08 12:07:19;;;;;;;0.70;0.25;;;;;;;;;;5086045;28;20169;-69
2022/02/08 12:09:55;;;;;;;2.15;0.50;;;;;;;;;;5082809;28;20055;-69
2022/02/08 12:32:56;;;;;;;1.98;0.32;;;;;;;;;;5009475;28;20053;-70
2022/02/08 12:35:36;;;;;;;2.33;0.35;;;;;;;;;;5051185;28;20047;-69
2022/02/08 12:57:44;;;;;;;0.47;0.30;;;;;;;;;;5099281;28;20435;-69
2022/02/08 13:00:28;;;;;;;0.45;0.30;;;;;;;;;;5087228;28;20079;-69
2022/02/08 13:03:19;;;;;;;1.40;0.50;;;;;;;;;;5087472;28;20036;-69
2022/02/08 14:03:19;;;;;;;0.88;0.52;;;;;;;;;;5086009;28;20047;-69
2022/02/08 14:06:15;;;;;;;0.85;0.50;;;;;;;;;;1062847;28;10023300;-69
2022/02/08 14:09:01;;;;;;;1.63;0.40;;;;;;;;;;4739364;27;10001209;-69
2022/02/08 14:20:16;;;;;;;1.20;0.52;;;;;;;;;;5075076;28;20079;-69
2022/02/08 14:23:08;;;;;;;0.43;0.40;;;;;;;;;;5071201;28;20051;-68
2022/02/08 14:25:50;;;;;;;2.17;0.40;;;;;;;;;;5086205;28;20343;-68
2022/02/08 14:31:28;;;;;;;2.17;0.70;;;;;;;;;;5083675;28;20048;-69
2022/02/08 14:34:19;;;;;;;1.50;0.50;;;;;;;;;;5082919;28;20044;-69
2022/02/08 14:37:31;;;;;;;3.10;0.73;;;;;;;;;;5078582;28;20141;-69
2022/02/08 15:08:00;;;;;;;1.35;0.50;;;;;;;;;;5086754;28;20044;-69
2022/02/08 15:10:37;;;;;;;1.02;0.50;;;;;;;;;;5091246;28;20058;-69
2022/02/08 15:13:08;;;;;;;1.00;0.52;;;;;;;;;;5085302;28;20492;-69
2022/02/08 15:18:47;;;;;;;1.75;0.63;;;;;;;;;;5083502;28;20044;-68
2022/02/08 15:21:20;;;;;;;2.13;0.57;;;;;;;;;;5094229;28;20561;-69
2022/02/08 15:23:50;;;;;;;1.77;0.60;;;;;;;;;;5086180;28;20048;-68
2022/02/08 15:26:19;;;;;;;0.98;0.47;;;;;;;;;;5088889;28;20522;-69
2022/02/08 15:28:49;;;;;;;1.17;0.50;;;;;;;;;;5090916;28;20059;-69
2022/02/08 15:31:19;;;;;;;2.47;0.32;;;;;;;;;;5079341;28;20503;-69
2022/02/08 15:33:48;;;;;;;1.38;0.57;;;;;;;;;;5090837;28;20052;-69
2022/02/08 15:36:17;;;;;;;2.17;0.73;;;;;;;;;;5083547;28;20136;-69
2022/02/08 15:38:53;;;;;;;2.85;1.08;;;;;;;;;;5090924;28;20047;-69
2022/02/08 15:41:22;;;;;;;3.97;0.88;;;;;;;;;;5089897;28;20484;-69
2022/02/08 15:43:51;;;;;;;0.65;0.43;;;;;;;;;;5089141;28;20148;-69
2022/02/08 15:46:24;;;;;;;1.50;0.45;;;;;;;;;;5082117;28;20047;-68
2022/02/08 15:48:54;;;;;;;0.85;0.60;;;;;;;;;;5087125;28;20127;-68
2022/02/08 15:51:29;;;;;;;1.98;0.63;;;;;;;;;;5088809;28;20166;-69
2022/02/08 15:54:10;;;;;;;1.77;0.40;;;;;;;;;;5088070;28;20131;-68
2022/02/08 15:57:31;;;;;;;0.60;0.40;;;;;;;;;;5089346;28;20052;-68
2022/02/08 16:00:33;;;;;;;0.90;0.55;;;;;;;;;;5084549;28;20052;-68
2022/02/08 16:09:04;;;;;;;1.90;0.50;;;;;;;;;;4727900;28;10001982;-68
2022/02/08 16:11:50;;;;;;;1.45;0.52;;;;;;;;;;5059145;28;20084;-68
2022/02/08 16:14:33;;;;;;;0.88;0.50;;;;;;;;;;5062902;28;20491;-68
2022/02/08 16:17:14;;;;;;;2.40;0.68;;;;;;;;;;5068637;28;20076;-70
2022/02/08 16:20:01;;;;;;;1.52;0.70;;;;;;;;;;5081223;28;20419;-71
2022/02/08 16:22:58;;;;;;;2.28;0.85;;;;;;;;;;5082205;28;20082;-70
2022/02/08 16:25:40;;;;;;;2.03;0.70;;;;;;;;;;5086560;28;20048;-70
2022/02/08 16:28:21;;;;;;;2.42;0.63;;;;;;;;;;5090889;28;20051;-70
2022/02/08 16:51:18;;;;;;;2.80;0.70;;;;;;;;;;5082294;28;20087;-68
2022/02/08 16:53:39;;;;;;;2.50;0.82;;;;;;;;;;5098667;28;20051;-70
2022/02/08 16:56:18;;;;;;;2.28;1.02;;;;;;;;;;5092461;27;20466;-69
2022/02/08 16:58:51;;;;;;;4.00;0.90;;;;;;;;;;5079572;28;20048;-70
2022/02/08 17:01:23;;;;;;;1.35;0.73;;;;;;;;;;5086562;28;20051;-69
2022/02/08 17:03:52;;;;;;;2.92;0.70;;;;;;;;;;5084040;28;20083;-70
2022/02/08 17:06:22;;;;;;;2.88;0.60;;;;;;;;;;5090525;28;20586;-70
2022/02/08 17:08:59;;;;;;;1.85;0.70;;;;;;;;;;5092347;28;20051;-70
2022/02/08 17:11:38;;;;;;;1.45;0.73;;;;;;;;;;5097720;28;20040;-70
2022/02/08 17:16:58;;;;;;;2.78;0.70;;;;;;;;;;5094322;28;20055;-69
2022/02/08 17:50:02;;;;;;;;;;;;;;;;;;5084356;28;20054;-71
2022/02/08 17:52:31;;;;;;;2.45;1.00;;;;;;;;;;5086274;28;20025;-71
2022/02/08 17:55:00;;;;;;;3.67;0.90;;;;;;;;;;5087185;28;20040;-71
2022/02/08 17:57:30;;;;;;;2.97;1.02;;;;;;;;;;5092693;28;20047;-71
2022/02/08 17:59:58;;;;;;;4.07;1.08;;;;;;;;;;5094248;28;20458;-71
2022/02/08 18:02:27;;;;;;;2.45;0.80;;;;;;;;;;5088157;28;20214;-71
2022/02/08 18:05:01;;;;;;;1.40;1.15;;;;;;;;;;5090217;28;20043;-71
2022/02/08 18:07:30;;;;;;;2.08;0.98;;;;;;;;;;5077354;28;20089;-71
2022/02/08 18:09:59;;;;;;;2.40;1.00;;;;;;;;;;5087811;28;20059;-71
2022/02/08 18:12:30;;;;;;;5.40;0.93;;;;;;;;;;5093893;28;20062;-71
2022/02/08 18:15:02;;;;;;;3.00;1.05;;;;;;;;;;5085188;28;20048;-71
2022/02/08 18:17:34;;;;;;;7.15;1.20;;;;;;;;;;5083816;28;20052;-71
2022/02/08 18:20:10;;;;;;;3.78;1.00;;;;;;;;;;5091692;28;20403;-71
2022/02/08 18:22:52;;;;;;;1.92;0.90;;;;;;;;;;5088365;28;20066;-71
2022/02/08 18:25:47;;;;;;;2.88;1.30;;;;;;;;;;5091911;28;20047;-71
2022/02/08 18:28:29;;;;;;;3.80;1.03;;;;;;;;;;5085004;28;20067;-71
2022/02/08 19:07:44;;;;;;;5.07;1.55;;;;;;;;;;5050270;28;20488;-71
2022/02/08 19:13:23;;;;;;;5.15;1.60;;;;;;;;;;5076124;28;20056;-71
2022/02/08 19:18:57;;;;;;;2.47;1.40;;;;;;;;;;5086090;28;20500;-70
2022/02/08 19:21:39;;;;;;;2.78;1.17;;;;;;;;;;5093303;28;20112;-70
2022/02/08 19:24:08;;;;;;;5.20;1.73;;;;;;;;;;5082661;28;20055;-70
2022/02/08 19:26:36;;;;;;;5.20;1.30;;;;;;;;;;5084034;28;20395;-70
2022/02/08 19:29:05;;;;;;;3.60;1.50;;;;;;;;;;5077408;28;20452;-70
2022/02/08 19:31:33;;;;;;;4.05;1.45;;;;;;;;;;5085580;28;20082;-70
2022/02/08 19:34:04;;;;;;;4.57;1.80;;;;;;;;;;5086268;28;20127;-70
2022/02/08 19:36:32;;;;;;;4.93;1.70;;;;;;;;;;5086623;28;20048;-71
2022/02/08 19:39:03;;;;;;;3.50;1.35;;;;;;;;;;5088936;28;20068;-70
2022/02/08 19:41:32;;;;;;;3.55;1.48;;;;;;;;;;5091244;28;20051;-70
2022/02/08 19:44:02;;;;;;;3.90;1.67;;;;;;;;;;5082162;28;20636;-70
2022/02/08 19:46:31;;;;;;;5.20;1.17;;;;;;;;;;5081159;28;20056;-70
2022/02/08 19:48:59;;;;;;;2.55;1.10;;;;;;;;;;5081599;28;20063;-70
2022/02/08 19:51:29;;;;;;;5.68;1.35;;;;;;;;;;5083592;28;20113;-70
2022/02/08 19:53:59;;;;;;;3.63;1.45;;;;;;;;;;5088171;28;20050;-70
2022/02/08 19:56:32;;;;;;;3.45;1.30;;;;;;;;;;5078703;28;20098;-71
2022/02/08 19:59:01;;;;;;;3.90;1.50;;;;;;;;;;5084866;28;20076;-70
2022/02/08 20:01:31;;;;;;;3.30;1.25;;;;;;;;;;5093473;28;20490;-70
2022/02/08 20:04:04;;;;;;;2.45;1.00;;;;;;;;;;5092767;28;20036;-71
2022/02/08 20:06:34;;;;;;;5.18;1.30;;;;;;;;;;5087935;28;20379;-71
2022/02/08 20:09:06;;;;;;;5.20;1.42;;;;;;;;;;5090723;28;20889;-71
2022/02/08 20:11:35;;;;;;;4.32;1.27;;;;;;;;;;5092869;28;20093;-71
2022/02/08 20:14:03;;;;;;;2.60;1.42;;;;;;;;;;5087560;28;20080;-71
2022/02/08 20:16:33;;;;;;;4.63;1.42;;;;;;;;;;5088017;28;20158;-71
2022/02/08 20:19:02;;;;;;;6.10;1.67;;;;;;;;;;5087731;28;20135;-71
2022/02/08 20:21:33;;;;;;;2.47;1.48;;;;;;;;;;5083189;28;20044;-71
2022/02/08 20:24:04;;;;;;;3.22;1.40;;;;;;;;;;5086658;28;20133;-71
2022/02/08 20:26:47;;;;;;;5.97;1.65;;;;;;;;;;5086466;28;20172;-71
2022/02/08 20:29:20;;;;;;;3.10;2.28;;;;;;;;;;5085536;28;20652;-71
2022/02/08 20:31:49;;;;;;;4.45;1.77;;;;;;;;;;5092163;28;20039;-71
2022/02/08 20:34:17;;;;;;;5.80;1.75;;;;;;;;;;5093237;28;20141;-71
2022/02/08 20:36:46;;;;;;;3.90;1.30;;;;;;;;;;5084169;28;20079;-71
2022/02/08 20:39:17;;;;;;;2.63;1.40;;;;;;;;;;5085784;28;20479;-71
2022/02/08 20:41:46;;;;;;;4.55;1.55;;;;;;;;;;5086677;28;20696;-71
2022/02/08 20:44:17;;;;;;;4.40;1.88;;;;;;;;;;5087105;28;20157;-71
2022/02/08 20:47:04;;;;;;;5.17;1.60;;;;;;;;;;3167447;28;10001822;-71
2022/02/08 20:49:32;;;;;;;5.38;1.55;;;;;;;;;;3329944;28;10002507;-71
2022/02/08 20:52:01;;;;;;;2.53;1.23;;;;;;;;;;5081247;28;20451;-70
2022/02/08 20:54:38;;;;;;;6.63;1.67;;;;;;;;;;5086004;28;20060;-70
2022/02/08 20:57:13;;;;;;;6.10;1.63;;;;;;;;;;5081277;28;20044;-71
2022/02/08 20:59:42;;;;;;;;;;;;;;;;;;5081452;28;20048;-71
2022/02/08 21:02:24;;;;;;;3.08;1.50;;;;;;;;;;5082971;28;19961;-71
2022/02/08 21:05:05;;;;;;;2.38;1.25;;;;;;;;;;5087238;28;20089;-71
2022/02/08 21:07:34;;;;;;;6.63;1.33;;;;;;;;;;5084229;28;20130;-71